sensor_id;sensor_type;location;lat;lon;timestamp;temperature;humidity
4643;DHT22;2334;48.710;9.622;2022-10-03T00:06:05;11.40;99.90
4643;DHT22;2334;48.710;9.622;2022-10-03T00:09:02;11.40;99.90
4643;DHT22;2334;48.710;9.622;2022-10-03T00:11:40;11.50;99.90
4643;DHT22;2334;48.710;9.622;2022-10-03T00:14:18;11.40;99.90
4643;DHT22;2334;48.710;9.622;2022-10-03T00:16:54;11.40;99.90
4643;DHT22;2334;48.710;9.622;2022-10-03T00:19:29;11.40;99.90
4643;DHT22;2334;48.710;9.622;2022-10-03T00:22:07;11.40;99.90
4643;DHT22;2334;48.710;9.622;2022-10-03T00:24:52;11.40;99.90
4643;DHT22;2334;48.710;9.622;2022-10-03T00:27:32;11.30;99.90
4643;DHT22;2334;48.710;9.622;2022-10-03T00:30:04;11.30;99.90
4643;DHT22;2334;48.710;9.622;2022-10-03T00:35:43;11.30;99.90
4643;DHT22;2334;48.710;9.622;2022-10-03T00:38:25;11.30;99.90
4643;DHT22;2334;48.710;9.622;2022-10-03T00:53:39;11.20;99.90
4643;DHT22;2334;48.710;9.622;2022-10-03T00:59:11;11.20;99.90
4643;DHT22;2334;48.710;9.622;2022-10-03T01:01:44;11.20;99.90
4643;DHT22;2334;48.710;9.622;2022-10-03T01:04:23;11.20;99.90
4643;DHT22;2334;48.710;9.622;2022-10-03T01:07:04;11.20;99.90
4643;DHT22;2334;48.710;9.622;2022-10-03T01:09:52;11.20;99.90
4643;DHT22;2334;48.710;9.622;2022-10-03T01:12:55;11.10;99.90
4643;DHT22;2334;48.710;9.622;2022-10-03T01:15:31;11.10;99.90
4643;DHT22;2334;48.710;9.622;2022-10-03T01:18:15;11.00;99.90
4643;DHT22;2334;48.710;9.622;2022-10-03T01:20:54;11.00;99.90
4643;DHT22;2334;48.710;9.622;2022-10-03T01:26:52;11.00;99.90
4643;DHT22;2334;48.710;9.622;2022-10-03T01:29:25;11.00;99.90
4643;DHT22;2334;48.710;9.622;2022-10-03T01:32:17;11.00;99.90
4643;DHT22;2334;48.710;9.622;2022-10-03T01:34:53;10.90;99.90
4643;DHT22;2334;48.710;9.622;2022-10-03T01:37:28;10.90;99.90
4643;DHT22;2334;48.710;9.622;2022-10-03T01:40:05;11.00;99.90
4643;DHT22;2334;48.710;9.622;2022-10-03T01:42:40;10.90;99.90
4643;DHT22;2334;48.710;9.622;2022-10-03T01:45:20;10.90;99.90
4643;DHT22;2334;48.710;9.622;2022-10-03T01:47:56;10.90;99.90
4643;DHT22;2334;48.710;9.622;2022-10-03T01:50:30;11.00;99.90
4643;DHT22;2334;48.710;9.622;2022-10-03T01:53:05;11.00;99.90
4643;DHT22;2334;48.710;9.622;2022-10-03T01:55:43;11.00;99.90
4643;DHT22;2334;48.710;9.622;2022-10-03T01:58:18;11.00;99.90
4643;DHT22;2334;48.710;9.622;2022-10-03T02:00:55;10.90;99.90
4643;DHT22;2334;48.710;9.622;2022-10-03T02:03:27;11.00;99.90
4643;DHT22;2334;48.710;9.622;2022-10-03T02:06:02;11.00;99.90
4643;DHT22;2334;48.710;9.622;2022-10-03T02:08:46;11.00;99.90
4643;DHT22;2334;48.710;9.622;2022-10-03T02:11:25;11.00;99.90
4643;DHT22;2334;48.710;9.622;2022-10-03T02:13:58;11.10;99.90
4643;DHT22;2334;48.710;9.622;2022-10-03T02:16:38;11.10;99.90
4643;DHT22;2334;48.710;9.622;2022-10-03T02:19:14;11.10;99.90
4643;DHT22;2334;48.710;9.622;2022-10-03T02:21:48;11.10;99.90
4643;DHT22;2334;48.710;9.622;2022-10-03T02:24:30;11.10;99.90
4643;DHT22;2334;48.710;9.622;2022-10-03T02:30:15;11.20;99.90
4643;DHT22;2334;48.710;9.622;2022-10-03T02:39:43;11.20;99.90
4643;DHT22;2334;48.710;9.622;2022-10-03T02:45:50;11.20;99.90
4643;DHT22;2334;48.710;9.622;2022-10-03T02:51:48;11.30;99.90
4643;DHT22;2334;48.710;9.622;2022-10-03T02:54:42;11.30;99.90
4643;DHT22;2334;48.710;9.622;2022-10-03T03:00:15;11.20;99.90
4643;DHT22;2334;48.710;9.622;2022-10-03T03:03:12;11.20;99.90
4643;DHT22;2334;48.710;9.622;2022-10-03T03:06:14;11.20;99.90
4643;DHT22;2334;48.710;9.622;2022-10-03T03:12:25;11.20;99.90
4643;DHT22;2334;48.710;9.622;2022-10-03T03:18:01;11.20;99.90
4643;DHT22;2334;48.710;9.622;2022-10-03T03:23:44;11.30;99.90
4643;DHT22;2334;48.710;9.622;2022-10-03T03:29:10;11.30;99.90
4643;DHT22;2334;48.710;9.622;2022-10-03T03:31:45;11.30;99.90
4643;DHT22;2334;48.710;9.622;2022-10-03T03:34:19;11.30;99.90
4643;DHT22;2334;48.710;9.622;2022-10-03T03:36:52;11.30;99.90
4643;DHT22;2334;48.710;9.622;2022-10-03T03:39:37;11.30;99.90
4643;DHT22;2334;48.710;9.622;2022-10-03T03:42:24;11.30;99.90
4643;DHT22;2334;48.710;9.622;2022-10-03T03:47:56;11.40;99.90
4643;DHT22;2334;48.710;9.622;2022-10-03T03:50:36;11.40;99.90
4643;DHT22;2334;48.710;9.622;2022-10-03T03:56:22;11.30;99.90
4643;DHT22;2334;48.710;9.622;2022-10-03T03:58:59;11.30;99.90
4643;DHT22;2334;48.710;9.622;2022-10-03T04:01:40;11.30;99.90
4643;DHT22;2334;48.710;9.622;2022-10-03T04:04:36;11.30;99.90
4643;DHT22;2334;48.710;9.622;2022-10-03T04:07:14;11.30;99.90
4643;DHT22;2334;48.710;9.622;2022-10-03T04:10:06;11.40;99.90
4643;DHT22;2334;48.710;9.622;2022-10-03T04:15:55;11.40;99.90
4643;DHT22;2334;48.710;9.622;2022-10-03T04:18:51;11.40;99.90
4643;DHT22;2334;48.710;9.622;2022-10-03T04:25:04;11.40;99.90
4643;DHT22;2334;48.710;9.622;2022-10-03T04:27:46;11.40;99.90
4643;DHT22;2334;48.710;9.622;2022-10-03T04:30:22;11.40;99.90
4643;DHT22;2334;48.710;9.622;2022-10-03T04:33:05;11.40;99.90
4643;DHT22;2334;48.710;9.622;2022-10-03T04:36:08;11.40;99.90
4643;DHT22;2334;48.710;9.622;2022-10-03T04:38:44;11.40;99.90
4643;DHT22;2334;48.710;9.622;2022-10-03T04:41:23;11.50;99.90
4643;DHT22;2334;48.710;9.622;2022-10-03T04:44:00;11.40;99.90
4643;DHT22;2334;48.710;9.622;2022-10-03T04:46:32;11.40;99.90
4643;DHT22;2334;48.710;9.622;2022-10-03T04:49:08;11.40;99.90
4643;DHT22;2334;48.710;9.622;2022-10-03T04:51:47;11.30;99.90
4643;DHT22;2334;48.710;9.622;2022-10-03T04:54:23;11.30;99.90
4643;DHT22;2334;48.710;9.622;2022-10-03T04:56:58;11.20;99.90
4643;DHT22;2334;48.710;9.622;2022-10-03T04:59:41;11.20;99.90
4643;DHT22;2334;48.710;9.622;2022-10-03T05:02:22;11.20;99.90
4643;DHT22;2334;48.710;9.622;2022-10-03T05:05:06;11.10;99.90
4643;DHT22;2334;48.710;9.622;2022-10-03T05:07:40;11.10;99.90
4643;DHT22;2334;48.710;9.622;2022-10-03T05:10:30;11.00;99.90
4643;DHT22;2334;48.710;9.622;2022-10-03T05:13:06;11.10;99.90
4643;DHT22;2334;48.710;9.622;2022-10-03T05:15:45;11.00;99.90
4643;DHT22;2334;48.710;9.622;2022-10-03T05:18:19;11.00;99.90
4643;DHT22;2334;48.710;9.622;2022-10-03T05:20:51;11.00;99.90
4643;DHT22;2334;48.710;9.622;2022-10-03T05:23:37;11.00;99.90
4643;DHT22;2334;48.710;9.622;2022-10-03T05:26:13;11.00;99.90
4643;DHT22;2334;48.710;9.622;2022-10-03T05:28:47;10.90;99.90
4643;DHT22;2334;48.710;9.622;2022-10-03T05:31:26;10.90;99.90
4643;DHT22;2334;48.710;9.622;2022-10-03T05:34:02;10.90;99.90
4643;DHT22;2334;48.710;9.622;2022-10-03T05:36:40;10.90;99.90
4643;DHT22;2334;48.710;9.622;2022-10-03T05:39:29;10.90;99.90
4643;DHT22;2334;48.710;9.622;2022-10-03T05:42:16;10.90;99.90
4643;DHT22;2334;48.710;9.622;2022-10-03T05:44:54;10.90;99.90
4643;DHT22;2334;48.710;9.622;2022-10-03T05:47:27;10.80;99.90
4643;DHT22;2334;48.710;9.622;2022-10-03T05:50:32;10.90;99.90
4643;DHT22;2334;48.710;9.622;2022-10-03T05:56:07;10.90;99.90
4643;DHT22;2334;48.710;9.622;2022-10-03T05:59:10;10.90;99.90
4643;DHT22;2334;48.710;9.622;2022-10-03T06:05:10;10.90;99.90
4643;DHT22;2334;48.710;9.622;2022-10-03T06:07:50;11.00;99.90
4643;DHT22;2334;48.710;9.622;2022-10-03T06:10:42;11.00;99.90
4643;DHT22;2334;48.710;9.622;2022-10-03T06:13:17;11.00;99.90
4643;DHT22;2334;48.710;9.622;2022-10-03T06:15:55;11.00;99.90
4643;DHT22;2334;48.710;9.622;2022-10-03T06:21:38;11.00;99.90
4643;DHT22;2334;48.710;9.622;2022-10-03T06:27:36;11.10;99.90
4643;DHT22;2334;48.710;9.622;2022-10-03T06:30:21;11.10;99.90
4643;DHT22;2334;48.710;9.622;2022-10-03T06:33:34;11.10;99.90
4643;DHT22;2334;48.710;9.622;2022-10-03T06:36:26;11.10;99.90
4643;DHT22;2334;48.710;9.622;2022-10-03T06:48:43;11.20;99.90
4643;DHT22;2334;48.710;9.622;2022-10-03T06:51:38;11.30;99.90
4643;DHT22;2334;48.710;9.622;2022-10-03T06:57:28;11.40;99.90
4643;DHT22;2334;48.710;9.622;2022-10-03T07:00:10;11.40;99.90
4643;DHT22;2334;48.710;9.622;2022-10-03T07:02:57;11.40;99.90
4643;DHT22;2334;48.710;9.622;2022-10-03T07:06:02;11.40;99.90
4643;DHT22;2334;48.710;9.622;2022-10-03T07:09:12;11.50;99.90
4643;DHT22;2334;48.710;9.622;2022-10-03T07:12:06;11.50;99.90
4643;DHT22;2334;48.710;9.622;2022-10-03T07:15:07;11.50;99.90
4643;DHT22;2334;48.710;9.622;2022-10-03T07:18:03;11.50;99.90
4643;DHT22;2334;48.710;9.622;2022-10-03T07:23:56;11.60;99.90
4643;DHT22;2334;48.710;9.622;2022-10-03T07:26:55;11.60;99.90
4643;DHT22;2334;48.710;9.622;2022-10-03T07:29:37;11.70;99.90
4643;DHT22;2334;48.710;9.622;2022-10-03T07:32:25;11.70;99.90
4643;DHT22;2334;48.710;9.622;2022-10-03T07:35:20;11.70;99.90
4643;DHT22;2334;48.710;9.622;2022-10-03T07:38:35;11.70;99.90
4643;DHT22;2334;48.710;9.622;2022-10-03T07:41:42;11.70;99.90
4643;DHT22;2334;48.710;9.622;2022-10-03T07:44:22;11.80;99.90
4643;DHT22;2334;48.710;9.622;2022-10-03T07:50:43;11.80;99.90
4643;DHT22;2334;48.710;9.622;2022-10-03T07:53:33;12.00;99.90
4643;DHT22;2334;48.710;9.622;2022-10-03T07:56:13;12.10;99.90
4643;DHT22;2334;48.710;9.622;2022-10-03T07:58:55;12.20;99.90
4643;DHT22;2334;48.710;9.622;2022-10-03T08:04:43;12.20;99.90
4643;DHT22;2334;48.710;9.622;2022-10-03T08:07:42;12.10;99.90
4643;DHT22;2334;48.710;9.622;2022-10-03T08:10:25;12.20;99.90
4643;DHT22;2334;48.710;9.622;2022-10-03T08:13:14;12.20;99.90
4643;DHT22;2334;48.710;9.622;2022-10-03T08:16:01;12.30;99.90
4643;DHT22;2334;48.710;9.622;2022-10-03T08:19:10;12.50;99.90
4643;DHT22;2334;48.710;9.622;2022-10-03T08:21:52;12.60;99.90
4643;DHT22;2334;48.710;9.622;2022-10-03T08:24:55;12.70;99.90
4643;DHT22;2334;48.710;9.622;2022-10-03T08:27:38;12.90;99.90
4643;DHT22;2334;48.710;9.622;2022-10-03T08:30:20;12.80;99.90
4643;DHT22;2334;48.710;9.622;2022-10-03T08:33:16;12.70;99.90
4643;DHT22;2334;48.710;9.622;2022-10-03T08:36:09;12.80;99.90
4643;DHT22;2334;48.710;9.622;2022-10-03T08:38:59;12.70;99.90
4643;DHT22;2334;48.710;9.622;2022-10-03T08:42:10;12.60;99.90
4643;DHT22;2334;48.710;9.622;2022-10-03T08:48:12;12.60;99.90
4643;DHT22;2334;48.710;9.622;2022-10-03T08:50:53;12.60;99.90
4643;DHT22;2334;48.710;9.622;2022-10-03T08:53:54;12.70;99.90
4643;DHT22;2334;48.710;9.622;2022-10-03T08:56:31;12.60;99.90
4643;DHT22;2334;48.710;9.622;2022-10-03T08:59:55;12.80;99.90
4643;DHT22;2334;48.710;9.622;2022-10-03T09:02:56;12.90;99.90
4643;DHT22;2334;48.710;9.622;2022-10-03T09:09:12;13.60;99.90
4643;DHT22;2334;48.710;9.622;2022-10-03T09:15:07;13.80;99.90
4643;DHT22;2334;48.710;9.622;2022-10-03T09:21:14;13.40;99.90
4643;DHT22;2334;48.710;9.622;2022-10-03T09:24:11;13.40;99.90
4643;DHT22;2334;48.710;9.622;2022-10-03T09:27:17;13.90;99.90
4643;DHT22;2334;48.710;9.622;2022-10-03T09:30:20;14.40;99.90
4643;DHT22;2334;48.710;9.622;2022-10-03T09:36:10;14.20;99.90
4643;DHT22;2334;48.710;9.622;2022-10-03T09:51:24;13.50;99.90
4643;DHT22;2334;48.710;9.622;2022-10-03T09:54:21;13.40;99.90
4643;DHT22;2334;48.710;9.622;2022-10-03T10:00:15;13.40;99.90
4643;DHT22;2334;48.710;9.622;2022-10-03T10:03:09;13.80;99.90
4643;DHT22;2334;48.710;9.622;2022-10-03T10:05:55;14.50;99.90
4643;DHT22;2334;48.710;9.622;2022-10-03T10:09:05;14.90;99.90
4643;DHT22;2334;48.710;9.622;2022-10-03T10:14:45;14.70;99.90
4643;DHT22;2334;48.710;9.622;2022-10-03T10:20:54;14.50;99.90
4643;DHT22;2334;48.710;9.622;2022-10-03T10:23:39;14.30;99.90
4643;DHT22;2334;48.710;9.622;2022-10-03T10:29:42;15.00;99.90
4643;DHT22;2334;48.710;9.622;2022-10-03T10:32:57;15.60;99.90
4643;DHT22;2334;48.710;9.622;2022-10-03T10:36:02;16.10;99.90
4643;DHT22;2334;48.710;9.622;2022-10-03T10:45:22;16.20;99.90
4643;DHT22;2334;48.710;9.622;2022-10-03T10:48:26;16.00;99.90
4643;DHT22;2334;48.710;9.622;2022-10-03T10:54:37;15.30;99.90
4643;DHT22;2334;48.710;9.622;2022-10-03T10:57:25;15.30;99.90
4643;DHT22;2334;48.710;9.622;2022-10-03T11:00:22;15.30;99.90
4643;DHT22;2334;48.710;9.622;2022-10-03T11:12:37;15.60;99.90
4643;DHT22;2334;48.710;9.622;2022-10-03T11:22:04;15.30;99.90
4643;DHT22;2334;48.710;9.622;2022-10-03T11:25:06;15.10;99.90
4643;DHT22;2334;48.710;9.622;2022-10-03T11:27:58;15.10;99.90
4643;DHT22;2334;48.710;9.622;2022-10-03T11:30:56;14.90;99.90
4643;DHT22;2334;48.710;9.622;2022-10-03T11:33:58;14.90;99.90
4643;DHT22;2334;48.710;9.622;2022-10-03T11:36:52;15.00;99.90
4643;DHT22;2334;48.710;9.622;2022-10-03T11:39:27;15.00;99.90
4643;DHT22;2334;48.710;9.622;2022-10-03T11:42:01;15.00;99.90
4643;DHT22;2334;48.710;9.622;2022-10-03T11:44:33;14.90;99.90
4643;DHT22;2334;48.710;9.622;2022-10-03T11:47:41;14.80;99.90
4643;DHT22;2334;48.710;9.622;2022-10-03T11:50:33;14.60;99.90
4643;DHT22;2334;48.710;9.622;2022-10-03T11:53:26;14.70;99.90
4643;DHT22;2334;48.710;9.622;2022-10-03T11:56:06;14.70;99.90
4643;DHT22;2334;48.710;9.622;2022-10-03T11:58:57;14.90;99.90
4643;DHT22;2334;48.710;9.622;2022-10-03T12:01:42;15.10;99.90
4643;DHT22;2334;48.710;9.622;2022-10-03T12:04:19;15.10;99.90
4643;DHT22;2334;48.710;9.622;2022-10-03T12:06:59;14.90;99.90
4643;DHT22;2334;48.710;9.622;2022-10-03T12:10:09;14.90;99.90
4643;DHT22;2334;48.710;9.622;2022-10-03T12:12:43;14.90;99.90
4643;DHT22;2334;48.710;9.622;2022-10-03T12:15:27;14.90;99.90
4643;DHT22;2334;48.710;9.622;2022-10-03T12:18:05;14.90;99.90
4643;DHT22;2334;48.710;9.622;2022-10-03T12:20:54;15.00;99.90
4643;DHT22;2334;48.710;9.622;2022-10-03T12:23:31;15.00;99.90
4643;DHT22;2334;48.710;9.622;2022-10-03T12:26:04;15.10;99.90
4643;DHT22;2334;48.710;9.622;2022-10-03T12:28:36;15.20;99.90
4643;DHT22;2334;48.710;9.622;2022-10-03T12:31:13;15.10;99.90
4643;DHT22;2334;48.710;9.622;2022-10-03T12:33:49;15.10;99.90
4643;DHT22;2334;48.710;9.622;2022-10-03T12:36:21;15.20;99.90
4643;DHT22;2334;48.710;9.622;2022-10-03T12:39:00;15.30;99.90
4643;DHT22;2334;48.710;9.622;2022-10-03T12:41:55;15.40;99.90
4643;DHT22;2334;48.710;9.622;2022-10-03T12:44:32;15.50;99.90
4643;DHT22;2334;48.710;9.622;2022-10-03T12:47:19;15.50;99.90
4643;DHT22;2334;48.710;9.622;2022-10-03T12:49:54;15.60;99.90
4643;DHT22;2334;48.710;9.622;2022-10-03T12:52:27;15.70;99.90
4643;DHT22;2334;48.710;9.622;2022-10-03T12:55:06;15.70;99.90
4643;DHT22;2334;48.710;9.622;2022-10-03T12:57:51;15.60;99.90
4643;DHT22;2334;48.710;9.622;2022-10-03T13:00:21;15.60;99.90
4643;DHT22;2334;48.710;9.622;2022-10-03T13:03:10;15.70;99.90
4643;DHT22;2334;48.710;9.622;2022-10-03T13:05:57;15.80;99.90
4643;DHT22;2334;48.710;9.622;2022-10-03T13:08:42;15.80;99.90
4643;DHT22;2334;48.710;9.622;2022-10-03T13:11:24;16.00;99.90
4643;DHT22;2334;48.710;9.622;2022-10-03T13:14:14;16.00;99.90
4643;DHT22;2334;48.710;9.622;2022-10-03T13:16:57;16.00;99.90
4643;DHT22;2334;48.710;9.622;2022-10-03T13:19:30;16.10;99.90
4643;DHT22;2334;48.710;9.622;2022-10-03T13:22:13;16.30;99.90
4643;DHT22;2334;48.710;9.622;2022-10-03T13:24:54;16.70;99.90
4643;DHT22;2334;48.710;9.622;2022-10-03T13:27:34;16.80;99.90
4643;DHT22;2334;48.710;9.622;2022-10-03T13:30:05;16.80;99.90
4643;DHT22;2334;48.710;9.622;2022-10-03T13:32:41;16.80;99.90
4643;DHT22;2334;48.710;9.622;2022-10-03T13:35:31;17.00;99.90
4643;DHT22;2334;48.710;9.622;2022-10-03T13:41:23;17.20;99.90
4643;DHT22;2334;48.710;9.622;2022-10-03T13:43:57;17.20;99.90
4643;DHT22;2334;48.710;9.622;2022-10-03T13:46:31;17.20;99.90
4643;DHT22;2334;48.710;9.622;2022-10-03T13:49:08;17.30;99.90
4643;DHT22;2334;48.710;9.622;2022-10-03T13:51:44;17.40;99.90
4643;DHT22;2334;48.710;9.622;2022-10-03T13:54:16;17.20;99.90
4643;DHT22;2334;48.710;9.622;2022-10-03T13:56:57;17.10;99.90
4643;DHT22;2334;48.710;9.622;2022-10-03T13:59:57;17.30;99.90
4643;DHT22;2334;48.710;9.622;2022-10-03T14:02:47;17.30;99.90
4643;DHT22;2334;48.710;9.622;2022-10-03T14:08:22;17.30;99.90
4643;DHT22;2334;48.710;9.622;2022-10-03T14:11:10;17.30;99.90
4643;DHT22;2334;48.710;9.622;2022-10-03T14:13:48;17.30;99.90
4643;DHT22;2334;48.710;9.622;2022-10-03T14:16:22;17.20;99.90
4643;DHT22;2334;48.710;9.622;2022-10-03T14:18:59;17.20;99.90
4643;DHT22;2334;48.710;9.622;2022-10-03T14:21:45;17.10;99.90
4643;DHT22;2334;48.710;9.622;2022-10-03T14:24:26;17.00;99.90
4643;DHT22;2334;48.710;9.622;2022-10-03T14:27:03;16.90;99.90
4643;DHT22;2334;48.710;9.622;2022-10-03T14:29:37;16.80;99.90
4643;DHT22;2334;48.710;9.622;2022-10-03T14:32:16;16.50;99.90
4643;DHT22;2334;48.710;9.622;2022-10-03T14:34:49;16.40;99.90
4643;DHT22;2334;48.710;9.622;2022-10-03T14:37:24;16.40;99.90
4643;DHT22;2334;48.710;9.622;2022-10-03T14:40:06;16.30;99.90
4643;DHT22;2334;48.710;9.622;2022-10-03T14:42:43;16.10;99.90
4643;DHT22;2334;48.710;9.622;2022-10-03T14:45:16;16.10;99.90
4643;DHT22;2334;48.710;9.622;2022-10-03T14:47:48;16.10;99.90
4643;DHT22;2334;48.710;9.622;2022-10-03T14:50:18;16.20;99.90
4643;DHT22;2334;48.710;9.622;2022-10-03T14:52:51;16.30;99.90
4643;DHT22;2334;48.710;9.622;2022-10-03T14:55:23;16.30;99.90
4643;DHT22;2334;48.710;9.622;2022-10-03T14:57:52;16.10;99.90
4643;DHT22;2334;48.710;9.622;2022-10-03T15:00:27;16.10;99.90
4643;DHT22;2334;48.710;9.622;2022-10-03T15:03:22;16.10;99.90
4643;DHT22;2334;48.710;9.622;2022-10-03T15:05:57;16.10;99.90
4643;DHT22;2334;48.710;9.622;2022-10-03T15:08:30;16.20;99.90
4643;DHT22;2334;48.710;9.622;2022-10-03T15:11:00;16.30;99.90
4643;DHT22;2334;48.710;9.622;2022-10-03T15:13:32;16.40;99.90
4643;DHT22;2334;48.710;9.622;2022-10-03T15:16:01;16.60;99.90
4643;DHT22;2334;48.710;9.622;2022-10-03T15:18:29;16.40;99.90
4643;DHT22;2334;48.710;9.622;2022-10-03T15:20:57;16.40;99.90
4643;DHT22;2334;48.710;9.622;2022-10-03T15:23:26;16.40;99.90
4643;DHT22;2334;48.710;9.622;2022-10-03T15:25:59;16.30;99.90
4643;DHT22;2334;48.710;9.622;2022-10-03T15:28:35;16.30;99.90
4643;DHT22;2334;48.710;9.622;2022-10-03T15:31:08;16.30;99.90
4643;DHT22;2334;48.710;9.622;2022-10-03T15:33:39;16.10;99.90
4643;DHT22;2334;48.710;9.622;2022-10-03T15:36:11;16.00;99.90
4643;DHT22;2334;48.710;9.622;2022-10-03T15:38:42;15.90;99.90
4643;DHT22;2334;48.710;9.622;2022-10-03T15:41:14;15.60;99.90
4643;DHT22;2334;48.710;9.622;2022-10-03T15:43:44;15.50;99.90
4643;DHT22;2334;48.710;9.622;2022-10-03T15:46:28;15.40;99.90
4643;DHT22;2334;48.710;9.622;2022-10-03T15:49:00;15.30;99.90
4643;DHT22;2334;48.710;9.622;2022-10-03T15:51:29;15.30;99.90
4643;DHT22;2334;48.710;9.622;2022-10-03T15:53:59;15.30;99.90
4643;DHT22;2334;48.710;9.622;2022-10-03T15:56:32;15.20;99.90
4643;DHT22;2334;48.710;9.622;2022-10-03T15:59:06;15.20;99.90
4643;DHT22;2334;48.710;9.622;2022-10-03T16:01:37;15.30;99.90
4643;DHT22;2334;48.710;9.622;2022-10-03T16:04:06;15.30;99.90
4643;DHT22;2334;48.710;9.622;2022-10-03T16:06:42;15.20;99.90
4643;DHT22;2334;48.710;9.622;2022-10-03T16:09:16;15.20;99.90
4643;DHT22;2334;48.710;9.622;2022-10-03T16:11:58;15.20;99.90
4643;DHT22;2334;48.710;9.622;2022-10-03T16:14:29;15.20;99.90
4643;DHT22;2334;48.710;9.622;2022-10-03T16:17:04;15.20;99.90
4643;DHT22;2334;48.710;9.622;2022-10-03T16:19:38;15.00;99.90
4643;DHT22;2334;48.710;9.622;2022-10-03T16:22:16;14.90;99.90
4643;DHT22;2334;48.710;9.622;2022-10-03T16:24:51;14.90;99.90
4643;DHT22;2334;48.710;9.622;2022-10-03T16:27:23;14.80;99.90
4643;DHT22;2334;48.710;9.622;2022-10-03T16:29:56;14.70;99.90
4643;DHT22;2334;48.710;9.622;2022-10-03T16:32:27;14.50;99.90
4643;DHT22;2334;48.710;9.622;2022-10-03T16:34:59;14.50;99.90
4643;DHT22;2334;48.710;9.622;2022-10-03T16:37:29;14.40;99.90
4643;DHT22;2334;48.710;9.622;2022-10-03T16:39:59;14.40;99.90
4643;DHT22;2334;48.710;9.622;2022-10-03T16:42:38;14.40;99.90
4643;DHT22;2334;48.710;9.622;2022-10-03T16:45:19;14.20;99.90
4643;DHT22;2334;48.710;9.622;2022-10-03T16:47:47;14.10;99.90
4643;DHT22;2334;48.710;9.622;2022-10-03T16:50:40;14.00;99.90
4643;DHT22;2334;48.710;9.622;2022-10-03T16:53:08;13.90;99.90
4643;DHT22;2334;48.710;9.622;2022-10-03T16:55:44;13.80;99.90
4643;DHT22;2334;48.710;9.622;2022-10-03T16:58:18;13.60;99.90
4643;DHT22;2334;48.710;9.622;2022-10-03T17:00:53;13.40;99.90
4643;DHT22;2334;48.710;9.622;2022-10-03T17:03:24;13.30;99.90
4643;DHT22;2334;48.710;9.622;2022-10-03T17:05:54;13.10;99.90
4643;DHT22;2334;48.710;9.622;2022-10-03T17:08:26;13.00;99.90
4643;DHT22;2334;48.710;9.622;2022-10-03T17:10:55;12.90;99.90
4643;DHT22;2334;48.710;9.622;2022-10-03T17:13:36;12.70;99.90
4643;DHT22;2334;48.710;9.622;2022-10-03T17:16:08;12.60;99.90
4643;DHT22;2334;48.710;9.622;2022-10-03T17:18:40;12.40;99.90
4643;DHT22;2334;48.710;9.622;2022-10-03T17:21:18;12.30;99.90
4643;DHT22;2334;48.710;9.622;2022-10-03T17:23:52;12.30;99.90
4643;DHT22;2334;48.710;9.622;2022-10-03T17:26:25;12.20;99.90
4643;DHT22;2334;48.710;9.622;2022-10-03T17:29:00;12.10;99.90
4643;DHT22;2334;48.710;9.622;2022-10-03T17:31:31;12.00;99.90
4643;DHT22;2334;48.710;9.622;2022-10-03T17:34:03;12.00;99.90
4643;DHT22;2334;48.710;9.622;2022-10-03T17:37:04;12.00;99.90
4643;DHT22;2334;48.710;9.622;2022-10-03T17:39:37;12.00;99.90
4643;DHT22;2334;48.710;9.622;2022-10-03T17:42:16;11.90;99.90
4643;DHT22;2334;48.710;9.622;2022-10-03T17:44:55;11.90;99.90
4643;DHT22;2334;48.710;9.622;2022-10-03T17:47:29;11.80;99.90
4643;DHT22;2334;48.710;9.622;2022-10-03T17:50:04;11.70;99.90
4643;DHT22;2334;48.710;9.622;2022-10-03T17:52:32;11.70;99.90
4643;DHT22;2334;48.710;9.622;2022-10-03T17:55:06;11.60;99.90
4643;DHT22;2334;48.710;9.622;2022-10-03T17:57:42;11.60;99.90
4643;DHT22;2334;48.710;9.622;2022-10-03T18:00:18;11.60;99.90
4643;DHT22;2334;48.710;9.622;2022-10-03T18:02:52;11.60;99.90
4643;DHT22;2334;48.710;9.622;2022-10-03T18:05:23;11.30;99.90
4643;DHT22;2334;48.710;9.622;2022-10-03T18:07:52;11.20;99.90
4643;DHT22;2334;48.710;9.622;2022-10-03T18:10:22;11.00;99.90
4643;DHT22;2334;48.710;9.622;2022-10-03T18:12:52;11.00;99.90
4643;DHT22;2334;48.710;9.622;2022-10-03T18:16:02;11.10;99.90
4643;DHT22;2334;48.710;9.622;2022-10-03T18:19:03;11.10;99.90
4643;DHT22;2334;48.710;9.622;2022-10-03T18:21:59;11.00;99.90
4643;DHT22;2334;48.710;9.622;2022-10-03T18:24:39;11.00;99.90
4643;DHT22;2334;48.710;9.622;2022-10-03T18:27:48;10.90;99.90
4643;DHT22;2334;48.710;9.622;2022-10-03T18:30:20;10.90;99.90
4643;DHT22;2334;48.710;9.622;2022-10-03T18:32:52;10.80;99.90
4643;DHT22;2334;48.710;9.622;2022-10-03T18:35:26;10.70;99.90
4643;DHT22;2334;48.710;9.622;2022-10-03T18:38:04;10.60;99.90
4643;DHT22;2334;48.710;9.622;2022-10-03T18:40:35;10.60;99.90
4643;DHT22;2334;48.710;9.622;2022-10-03T18:43:26;10.60;99.90
4643;DHT22;2334;48.710;9.622;2022-10-03T18:45:58;10.60;99.90
4643;DHT22;2334;48.710;9.622;2022-10-03T18:48:32;10.60;99.90
4643;DHT22;2334;48.710;9.622;2022-10-03T18:51:11;10.50;99.90
4643;DHT22;2334;48.710;9.622;2022-10-03T18:53:44;10.50;99.90
4643;DHT22;2334;48.710;9.622;2022-10-03T18:56:18;10.40;99.90
4643;DHT22;2334;48.710;9.622;2022-10-03T18:59:12;10.40;99.90
4643;DHT22;2334;48.710;9.622;2022-10-03T19:01:44;10.30;99.90
4643;DHT22;2334;48.710;9.622;2022-10-03T19:04:28;10.20;99.90
4643;DHT22;2334;48.710;9.622;2022-10-03T19:06:57;10.20;99.90
4643;DHT22;2334;48.710;9.622;2022-10-03T19:09:26;10.10;99.90
4643;DHT22;2334;48.710;9.622;2022-10-03T19:12:00;10.10;99.90
4643;DHT22;2334;48.710;9.622;2022-10-03T19:14:34;10.00;99.90
4643;DHT22;2334;48.710;9.622;2022-10-03T19:17:19;10.00;99.90
4643;DHT22;2334;48.710;9.622;2022-10-03T19:19:53;9.90;99.90
4643;DHT22;2334;48.710;9.622;2022-10-03T19:22:27;9.90;99.90
4643;DHT22;2334;48.710;9.622;2022-10-03T19:24:57;9.80;99.90
4643;DHT22;2334;48.710;9.622;2022-10-03T19:27:39;9.70;99.90
4643;DHT22;2334;48.710;9.622;2022-10-03T19:30:07;9.60;99.90
4643;DHT22;2334;48.710;9.622;2022-10-03T19:32:46;9.60;99.90
4643;DHT22;2334;48.710;9.622;2022-10-03T19:35:16;9.50;99.90
4643;DHT22;2334;48.710;9.622;2022-10-03T19:37:47;9.60;99.90
4643;DHT22;2334;48.710;9.622;2022-10-03T19:40:27;9.60;99.90
4643;DHT22;2334;48.710;9.622;2022-10-03T19:43:02;9.60;99.90
4643;DHT22;2334;48.710;9.622;2022-10-03T19:45:30;9.60;99.90
4643;DHT22;2334;48.710;9.622;2022-10-03T19:48:04;9.60;99.90
4643;DHT22;2334;48.710;9.622;2022-10-03T19:50:36;9.50;99.90
4643;DHT22;2334;48.710;9.622;2022-10-03T19:53:09;9.50;99.90
4643;DHT22;2334;48.710;9.622;2022-10-03T19:55:37;9.50;99.90
4643;DHT22;2334;48.710;9.622;2022-10-03T19:58:12;9.40;99.90
4643;DHT22;2334;48.710;9.622;2022-10-03T20:00:49;9.30;99.90
4643;DHT22;2334;48.710;9.622;2022-10-03T20:03:19;9.20;99.90
4643;DHT22;2334;48.710;9.622;2022-10-03T20:05:56;9.10;99.90
4643;DHT22;2334;48.710;9.622;2022-10-03T20:08:30;9.00;99.90
4643;DHT22;2334;48.710;9.622;2022-10-03T20:11:18;9.00;99.90
4643;DHT22;2334;48.710;9.622;2022-10-03T20:13:47;9.00;99.90
4643;DHT22;2334;48.710;9.622;2022-10-03T20:16:18;9.00;99.90
4643;DHT22;2334;48.710;9.622;2022-10-03T20:18:48;9.00;99.90
4643;DHT22;2334;48.710;9.622;2022-10-03T20:21:20;8.90;99.90
4643;DHT22;2334;48.710;9.622;2022-10-03T20:23:52;8.90;99.90
4643;DHT22;2334;48.710;9.622;2022-10-03T20:26:24;8.90;99.90
4643;DHT22;2334;48.710;9.622;2022-10-03T20:29:04;8.80;99.90
4643;DHT22;2334;48.710;9.622;2022-10-03T20:31:36;8.80;99.90